x

Portland 12 Nm Southeast Of Portland,me (44007) Wave Buoy

7:50 - Sat 23rd Jul 2016 All times are EDT. -4 hours from GMT.

  • Sig Wave height 1.6ft
  • Swell Direction
  • Peak Period 6s
  • Average Period 5s
  • Wind
    9mph, 11mph gusts
  • Sea Temp 62°f
  • Ar Temp 68°f
  • Sea Pressure 1007.5mb
  • Portland 12 Nm Southeast Of Portland,me
  • Portland 12 Nm Southeast Of Portland,me

More Historic Weather Station data

Upgrade to MSW Pro to gain access to the past 30 days of data for over 8000 Wavebouys and Weather Stations around the globe.

Join Pro

Comparision Forecast

View Surf forecast
   
Sáb 07/23 7:50 1.6ft 6s 5s 9 11 mph 1007.5mb 62f 68f
6:50 1.6ft 6s 5s 7 9 mph 1008mb 63f 66f
5:50 2.5ft 3s 4s 4 7 mph 1007.5mb 63f 65f
4:50 1.6ft 7s 5s 22 38 mph 1007.4mb 64f 67f
3:50 2ft 4s 5s 11
mph
1005.7mb 63f 68f
2:50 2ft 5s 5s 11 13 mph 1006mb 64f 69f
1:50 2ft 5s 5s 9 11 mph 1006.3mb 64f 69f
12:50 2ft 6s 5s 7
mph
1006.8mb 64f 69f
11:50 2.5ft 5s  -  7
mph
1006.9mb 63f 69f
10:50 2.5ft 5s 5s 4 7 mph 1006.9mb 62f 67f
9:50 2.5ft 6s 5s 4
mph
1006.8mb 62f 67f
8:50 2.5ft 6s 5s 4 7 mph 1006.8mb 61f 65f
7:50 2.5ft 6s 5s 7
mph
1006.8mb 61f 64f
6:50 2.5ft 6s 5s 7
mph
1006.5mb 61f 65f
5:50 2.5ft 6s 5s 7
mph
1005.6mb 61f 67f
4:50 2.5ft 7s 5s 7
mph
1005.3mb 61f 66f
3:50 2.5ft 6s 5s 4 7 mph 1005.5mb 61f 65f
2:50 3ft 7s 5s 11 13 mph 1006.2mb 61f 70f
1:50 3ft 6s 5s 7
mph
1005.5mb 61f 64f
12:50 3ft 6s 5s 7 9 mph 1005.5mb 61f 65f
Sex 07/22 11:50 3.5ft 6s 5s 7
mph
1005.6mb 61f 64f
10:50 3ft 6s 5s 11 18 mph 1006mb 61f 67f
9:50 3.5ft 6s 5s 7
mph
1005.4mb 62f 69f
8:50 3.5ft 5s 5s 7 9 mph 1005mb 62f 67f
7:50 3.5ft 6s 5s 9 11 mph 1004.7mb 62f 71f
6:50 3.5ft 6s 5s 7 9 mph 1004.3mb 62f 75f
5:50 3ft 6s 5s 11 13 mph 1004.3mb 62f 77f
4:50 3ft 6s 5s 11 13 mph 1004.5mb 62f 68f
3:50 3ft 6s 5s 11 13 mph 1004.8mb 62f 68f
1:50 3ft 6s 4s 16
mph
1005.6mb 62f 68f
12:50 2.5ft 5s 4s 16 18 mph 1006.2mb 62f 67f
11:50 2.5ft 5s 4s 16
mph
1007.2mb 61f 67f
10:50 3ft 5s 4s 18 20 mph 1007.5mb 61f 67f
9:50 3ft 5s 4s 13 16 mph 1008.5mb 61f 65f
8:50 3ft 5s 4s 16 18 mph 1009mb 62f 66f
7:50 2.5ft 5s 4s 11
mph
1009.8mb 61f 65f
6:50 3ft 5s 4s 18 20 mph 1009.7mb 61f 66f
5:50 2.5ft 5s 4s 16 18 mph 1009.7mb 62f 66f
4:50 2.5ft 5s 4s 16 18 mph 1010.2mb 62f 67f
3:50 2ft 4s 4s 13 16 mph 1010.6mb 63f 67f
2:50 1.6ft 3s 4s 13 16 mph 1010.9mb 63f 67f
1:50 1.3ft 10s 4s 13 16 mph 1011.4mb 63f 67f
12:50 1.3ft 10s 5s 11
mph
1012.2mb 63f 66f
Qui 07/21 11:50 1.3ft 8s 4s 11 13 mph 1012.8mb 63f 66f
10:50 1.3ft 7s 4s 9
mph
1013.7mb 63f 66f
9:50 1.3ft 3s 4s 4
mph
1014.5mb 63f 65f
8:50 1.3ft 3s 4s 9
mph
1014.2mb 63f 65f
7:50 1.3ft 9s 4s 9 11 mph 1014.4mb 64f 66f
6:50 1.3ft 3s 4s 9 11 mph 1015mb 64f 68f
5:50 1.3ft 3s 4s 9
mph
1015.4mb 64f 67f
4:50 1.6ft 3s 4s 13
mph
1015.8mb 64f 69f
3:50 1.3ft 7s 4s 9
mph
1016.3mb 64f 68f
2:50 1ft 7s 4s 9
mph
1016.5mb 64f 67f
1:50 1ft 9s 4s 13
mph
1016.7mb 64f 66f
12:50 1ft 7s 5s 11 13 mph 1017.6mb 64f 65f
11:50 1ft 8s 6s 9 11 mph 1018.4mb 64f 65f
10:50 1ft 9s 5s 7 9 mph 1018.9mb 63f 64f
9:50 1ft 8s 6s 4
mph
1019.6mb 62f 64f
8:50 1ft 8s 6s 9
mph
1019.5mb 62f 63f
7:50 1ft 8s 6s 2 4 mph 1019.6mb 62f 62f
6:50 1ft 7s 6s 7 9 mph 1019.7mb 62f 62f
5:50 1ft 14s 6s 9 11 mph 1019.5mb 62f 62f
4:50 1ft 6s 7s 7 9 mph 1019.1mb 62f 63f
3:50 1ft 6s 6s 7 9 mph 1018.6mb 63f 63f
2:50 1ft 7s 7s 4
mph
1018.9mb 63f 64f
1:50 1ft 6s 7s 4
mph
1019.3mb 63f 64f
12:50 1ft 6s 6s 9
mph
1019.2mb 63f 65f
Qua 07/20 11:50 1ft 8s 5s 7
mph
1019.1mb 62f 65f
10:50 1ft 7s 5s 7
mph
1019mb 62f 67f
9:50 1ft 6s 5s 7
mph
1018.8mb 62f 68f
8:50 1ft 7s 4s 9
mph
1018.7mb 62f 68f
7:50 1ft 7s 4s 11
mph
1018.2mb 62f 70f
6:50 1ft 7s 4s 13 18 mph 1018mb 62f 73f
5:50 1.3ft 6s 3s 18 20 mph 1017.5mb 62f 75f
4:50 1.3ft 7s 4s 16 20 mph 1017.6mb 62f 74f
3:50 1.3ft 8s 4s 13 16 mph 1017.9mb 62f 73f
2:50 1.3ft 8s 4s 11 20 mph 1018.2mb 62f 70f
1:50 1.3ft 7s 4s 11 16 mph 1018.5mb 62f 71f
12:50 1.3ft 7s 4s 7 11 mph 1019mb 62f 69f
11:50 1ft 8s 4s 9 11 mph 1019.6mb 62f 67f
10:50 1ft 7s 5s 11
mph
1020mb 62f 65f
9:50 1ft 8s 5s 7 9 mph 1020.3mb 62f 64f
8:50 1ft 9s 4s 7 9 mph 1021mb 61f 63f
7:50 1ft 6s 5s 9 11 mph 1020.4mb 61f 63f
6:50 1ft 9s 4s 11 13 mph 1020.1mb 61f 61f
5:50 1ft 9s 5s 13 16 mph 1020.3mb 61f 60f
4:50 1ft 6s 6s 9 11 mph 1020mb 60f 61f
3:50 1ft 6s 6s 11 13 mph 1019.6mb 61f 61f
2:50 1ft 6s 6s 11
mph
1019.5mb 61f 62f
1:50 1ft 7s 6s 9 11 mph 1019.2mb 61f 62f